createdAt,value
2023-01-29T00:00:12.849Z,13.30
2023-01-29T00:03:00.658Z,11.70
2023-01-29T00:05:28.829Z,11.40
2023-01-29T00:07:57.685Z,12.00
2023-01-29T00:10:26.306Z,9.80
2023-01-29T00:12:54.485Z,10.30
2023-01-29T00:15:22.307Z,10.10
2023-01-29T00:17:50.272Z,9.60
2023-01-29T00:20:18.617Z,9.40
2023-01-29T00:22:46.837Z,8.60
2023-01-29T00:25:14.831Z,10.30
2023-01-29T00:27:43.940Z,10.30
2023-01-29T00:30:13.254Z,10.90
2023-01-29T00:32:41.596Z,10.40
2023-01-29T00:35:09.849Z,11.40
2023-01-29T00:37:38.371Z,11.90
2023-01-29T00:40:06.871Z,9.30
2023-01-29T00:42:53.451Z,10.80
2023-01-29T00:45:21.383Z,10.10
2023-01-29T00:47:49.356Z,9.70
2023-01-29T00:50:17.699Z,9.40
2023-01-29T00:52:46.271Z,10.10
2023-01-29T00:55:14.637Z,10.10
2023-01-29T00:57:42.482Z,8.10
2023-01-29T01:00:14.531Z,8.80
2023-01-29T01:03:02.830Z,9.30
2023-01-29T01:05:32.248Z,9.80
2023-01-29T01:08:00.442Z,9.10
2023-01-29T01:10:32.392Z,9.10
2023-01-29T01:13:05.869Z,9.10
2023-01-29T01:15:39.883Z,9.00
2023-01-29T01:18:08.046Z,11.30
2023-01-29T01:20:36.814Z,8.90
2023-01-29T01:23:05.416Z,10.10
2023-01-29T01:25:33.971Z,9.90
2023-01-29T01:28:01.843Z,9.40
2023-01-29T01:30:30.126Z,10.20
2023-01-29T01:32:58.070Z,9.90
2023-01-29T01:35:25.972Z,9.00
2023-01-29T01:37:53.910Z,9.90
2023-01-29T01:40:24.404Z,10.80
2023-01-29T01:42:58.588Z,13.00
2023-01-29T01:45:32.533Z,12.20
2023-01-29T01:48:35.163Z,13.30
2023-01-29T01:51:06.591Z,13.10
2023-01-29T01:53:46.926Z,14.00
2023-01-29T01:56:23.385Z,12.20
2023-01-29T01:58:54.988Z,13.20
2023-01-29T02:01:28.931Z,13.30
2023-01-29T02:04:26.757Z,14.20
2023-01-29T02:07:14.865Z,15.20
2023-01-29T02:09:54.996Z,13.80
2023-01-29T02:12:23.360Z,15.40
2023-01-29T02:14:51.405Z,19.00
2023-01-29T02:17:20.666Z,17.80
2023-01-29T02:19:54.307Z,32.00
2023-01-29T02:22:59.287Z,25.90
2023-01-29T02:26:05.374Z,18.10
2023-01-29T02:29:22.729Z,15.20
2023-01-29T02:32:17.402Z,14.50
2023-01-29T02:35:28.421Z,42.30
2023-01-29T02:38:21.344Z,15.40
2023-01-29T02:41:22.372Z,22.50
2023-01-29T02:44:13.789Z,30.90
2023-01-29T02:46:52.265Z,63.40
2023-01-29T02:49:49.045Z,35.60
2023-01-29T02:52:26.771Z,24.20
2023-01-29T02:55:04.849Z,31.60
2023-01-29T02:57:38.053Z,21.00
2023-01-29T03:00:18.037Z,18.20
2023-01-29T03:02:54.005Z,21.20
2023-01-29T03:05:29.905Z,12.20
2023-01-29T03:08:10.266Z,12.80
2023-01-29T03:10:44.036Z,17.40
2023-01-29T03:13:21.786Z,13.90
2023-01-29T03:16:01.595Z,14.00
2023-01-29T03:18:46.271Z,17.30
2023-01-29T03:21:39.524Z,10.90
2023-01-29T03:24:30.026Z,9.00
2023-01-29T03:27:21.357Z,9.70
2023-01-29T03:30:12.001Z,9.30
2023-01-29T03:32:52.072Z,22.70
2023-01-29T03:35:33.616Z,14.30
2023-01-29T03:38:04.109Z,29.90
2023-01-29T03:40:43.991Z,25.10
2023-01-29T03:43:27.509Z,27.20
2023-01-29T03:46:01.953Z,13.70
2023-01-29T03:48:44.652Z,21.60
2023-01-29T03:51:35.597Z,14.40
2023-01-29T03:54:20.301Z,28.20
2023-01-29T03:57:23.031Z,25.20
2023-01-29T03:59:58.227Z,23.30
2023-01-29T04:03:01.389Z,12.80
2023-01-29T04:05:36.690Z,14.60
2023-01-29T04:08:17.304Z,28.60
2023-01-29T04:10:49.359Z,14.90
2023-01-29T04:13:19.091Z,11.00
2023-01-29T04:15:54.379Z,9.20
2023-01-29T04:18:29.606Z,8.90
2023-01-29T04:21:07.469Z,14.50
2023-01-29T04:23:35.488Z,12.10
2023-01-29T04:26:28.256Z,9.00
2023-01-29T04:29:22.376Z,10.00
2023-01-29T04:32:05.904Z,8.60
2023-01-29T04:35:01.504Z,12.10
2023-01-29T04:37:40.412Z,10.30
2023-01-29T04:40:23.596Z,14.20
2023-01-29T04:43:05.256Z,12.40
2023-01-29T04:45:39.005Z,15.30
2023-01-29T04:48:25.872Z,12.60
2023-01-29T04:51:13.034Z,10.80
2023-01-29T04:54:11.128Z,10.50
2023-01-29T04:56:53.560Z,8.10
2023-01-29T04:59:31.171Z,8.50
2023-01-29T05:02:02.618Z,8.90
2023-01-29T05:04:34.494Z,8.20
2023-01-29T05:07:06.698Z,7.80
2023-01-29T05:09:37.026Z,8.30
2023-01-29T05:12:09.365Z,7.90
2023-01-29T05:14:39.959Z,9.50
2023-01-29T05:17:15.935Z,11.60
2023-01-29T05:19:44.824Z,9.70
2023-01-29T05:22:16.183Z,10.50
2023-01-29T05:24:44.995Z,9.20
2023-01-29T05:27:48.040Z,8.90
2023-01-29T05:30:16.430Z,10.30
2023-01-29T05:32:44.711Z,8.60
2023-01-29T05:35:12.615Z,8.50
2023-01-29T05:37:40.448Z,9.40
2023-01-29T05:40:09.878Z,9.90
2023-01-29T05:42:37.944Z,9.20
2023-01-29T05:45:06.829Z,11.60
2023-01-29T05:47:34.808Z,11.10
2023-01-29T05:50:02.846Z,16.70
2023-01-29T05:52:30.793Z,14.50
2023-01-29T05:54:58.753Z,11.50
2023-01-29T05:57:26.739Z,10.50
2023-01-29T05:59:54.529Z,12.50
2023-01-29T06:02:22.583Z,12.10
2023-01-29T06:04:52.706Z,11.30
2023-01-29T06:07:20.725Z,10.70
2023-01-29T06:09:48.720Z,8.20
2023-01-29T06:12:16.579Z,11.60
2023-01-29T06:14:44.748Z,12.00
2023-01-29T06:17:12.649Z,9.00
2023-01-29T06:19:40.652Z,9.40
2023-01-29T06:22:08.566Z,11.10
2023-01-29T06:24:36.683Z,9.60
2023-01-29T06:27:04.701Z,10.80
2023-01-29T06:29:32.695Z,9.60
2023-01-29T06:32:00.797Z,12.40
2023-01-29T06:34:28.864Z,10.50
2023-01-29T06:36:56.672Z,12.40
2023-01-29T06:39:24.593Z,10.50
2023-01-29T06:41:52.409Z,9.90
2023-01-29T06:44:20.545Z,9.90
2023-01-29T06:46:48.438Z,12.10
2023-01-29T06:49:16.599Z,10.50
2023-01-29T06:51:44.400Z,11.00
2023-01-29T06:54:12.388Z,11.00
2023-01-29T06:56:40.253Z,10.90
2023-01-29T06:59:08.278Z,10.30
2023-01-29T07:01:41.206Z,12.00
2023-01-29T07:04:09.275Z,11.40
2023-01-29T07:06:37.563Z,11.00
2023-01-29T07:09:05.751Z,11.30
2023-01-29T07:11:35.516Z,11.20
2023-01-29T07:14:03.872Z,21.20
2023-01-29T07:16:32.492Z,95.90
2023-01-29T07:19:01.212Z,59.50
2023-01-29T07:21:29.524Z,40.10
2023-01-29T07:23:57.568Z,42.60
2023-01-29T07:26:25.420Z,98.40
2023-01-29T07:28:53.248Z,26.40
2023-01-29T07:31:21.835Z,37.40
2023-01-29T07:33:49.807Z,29.10
2023-01-29T07:36:17.875Z,25.50
2023-01-29T07:38:49.739Z,30.10
2023-01-29T07:41:17.617Z,28.30
2023-01-29T07:43:46.500Z,27.50
2023-01-29T07:46:14.570Z,32.60
2023-01-29T07:48:42.482Z,22.10
2023-01-29T07:51:10.269Z,21.70
2023-01-29T07:53:38.144Z,28.40
2023-01-29T07:56:06.172Z,29.90
2023-01-29T07:58:36.603Z,23.80
2023-01-29T08:01:07.741Z,29.60
2023-01-29T08:03:35.923Z,61.10
2023-01-29T08:06:04.625Z,42.40
2023-01-29T08:08:32.515Z,31.90
2023-01-29T08:11:02.834Z,27.60
2023-01-29T08:13:30.707Z,67.60
2023-01-29T08:16:02.939Z,61.40
2023-01-29T08:18:31.759Z,24.30
2023-01-29T08:21:02.589Z,26.50
2023-01-29T08:23:31.029Z,51.40
2023-01-29T08:25:59.389Z,31.00
2023-01-29T08:28:27.451Z,46.30
2023-01-29T08:30:55.550Z,45.30
2023-01-29T08:33:37.194Z,26.00
2023-01-29T08:36:08.162Z,22.90
2023-01-29T08:38:36.565Z,50.30
2023-01-29T08:41:05.151Z,135.60
2023-01-29T08:43:33.014Z,51.80
2023-01-29T08:46:00.968Z,19.40
2023-01-29T08:48:30.384Z,36.10
2023-01-29T08:51:00.110Z,22.20
2023-01-29T08:53:28.468Z,30.00
2023-01-29T08:55:56.751Z,22.70
2023-01-29T08:58:24.614Z,16.60
2023-01-29T09:00:52.949Z,37.90
2023-01-29T09:03:21.033Z,22.90
2023-01-29T09:05:49.210Z,18.30
2023-01-29T09:08:17.070Z,27.30
2023-01-29T09:10:45.034Z,48.30
2023-01-29T09:13:13.055Z,45.60
2023-01-29T09:15:41.039Z,48.90
2023-01-29T09:18:08.857Z,44.70
2023-01-29T09:20:38.391Z,26.40
2023-01-29T09:23:10.719Z,33.00
2023-01-29T09:25:38.994Z,30.90
2023-01-29T09:28:07.036Z,21.30
2023-01-29T09:30:37.823Z,31.00
2023-01-29T09:33:07.123Z,28.70
2023-01-29T09:35:35.050Z,39.90
2023-01-29T09:38:03.578Z,25.30
2023-01-29T09:40:43.715Z,20.60
2023-01-29T09:43:27.743Z,17.50
2023-01-29T09:46:05.522Z,32.60
2023-01-29T09:48:36.512Z,24.70
2023-01-29T09:51:12.984Z,22.10
2023-01-29T09:53:51.234Z,32.80
2023-01-29T09:56:21.525Z,20.10
2023-01-29T09:58:49.386Z,21.50
2023-01-29T10:01:40.789Z,21.70
2023-01-29T10:04:23.603Z,28.20
2023-01-29T10:07:03.881Z,25.20
2023-01-29T10:10:00.284Z,21.50
2023-01-29T10:12:28.088Z,17.70
2023-01-29T10:15:25.226Z,22.90
2023-01-29T10:18:21.083Z,55.80
2023-01-29T10:21:10.774Z,82.40
2023-01-29T10:23:46.294Z,41.70
2023-01-29T10:26:14.374Z,92.00
2023-01-29T10:28:46.598Z,50.40
2023-01-29T10:31:24.637Z,51.00
2023-01-29T10:34:02.607Z,42.70
2023-01-29T10:36:43.499Z,75.10
2023-01-29T10:39:15.386Z,48.70
2023-01-29T10:42:11.074Z,48.10
2023-01-29T10:44:56.461Z,40.60
2023-01-29T10:47:37.014Z,78.90
2023-01-29T10:50:23.243Z,70.90
2023-01-29T10:53:03.461Z,33.80
2023-01-29T10:56:10.716Z,25.40
2023-01-29T10:58:54.951Z,26.30
2023-01-29T11:01:23.158Z,33.40
2023-01-29T11:04:04.407Z,60.20
2023-01-29T11:06:36.945Z,39.60
2023-01-29T11:09:14.135Z,24.70
2023-01-29T11:11:50.438Z,44.50
2023-01-29T11:14:25.160Z,69.20
2023-01-29T11:16:53.271Z,68.50
2023-01-29T11:19:37.755Z,102.40
2023-01-29T11:22:06.375Z,29.40
2023-01-29T11:24:34.481Z,49.80
2023-01-29T11:27:04.509Z,51.40
2023-01-29T11:29:43.991Z,37.50
2023-01-29T11:32:15.361Z,37.60
2023-01-29T11:34:59.837Z,55.90
2023-01-29T11:37:35.817Z,75.10
2023-01-29T11:42:47.871Z,47.70
2023-01-29T11:45:25.758Z,33.80
2023-01-29T11:47:57.477Z,34.20
2023-01-29T11:50:31.930Z,32.20
2023-01-29T11:53:01.587Z,24.20
2023-01-29T11:55:49.848Z,38.70
2023-01-29T11:58:26.401Z,76.80
2023-01-29T12:00:56.808Z,43.20
2023-01-29T12:03:44.461Z,78.70
2023-01-29T12:06:20.729Z,35.80
2023-01-29T12:09:01.188Z,29.70
2023-01-29T12:11:34.303Z,37.80
2023-01-29T12:14:30.238Z,33.90
2023-01-29T12:17:24.128Z,31.00
2023-01-29T12:20:01.589Z,34.90
2023-01-29T12:22:50.846Z,37.00
2023-01-29T12:25:30.328Z,52.00
2023-01-29T12:28:22.721Z,42.60
2023-01-29T12:31:00.210Z,42.50
2023-01-29T12:33:44.076Z,31.00
2023-01-29T12:36:19.718Z,32.60
2023-01-29T12:38:47.754Z,40.40
2023-01-29T12:41:22.212Z,42.90
2023-01-29T12:43:55.472Z,29.10
2023-01-29T12:46:37.450Z,38.70
2023-01-29T12:49:13.984Z,37.20
2023-01-29T12:52:00.818Z,29.70
2023-01-29T12:54:37.991Z,30.00
2023-01-29T12:57:18.050Z,29.40
2023-01-29T12:59:49.989Z,33.50
2023-01-29T13:02:30.213Z,35.70
2023-01-29T13:05:05.696Z,36.40
2023-01-29T13:07:40.183Z,36.20
2023-01-29T13:10:23.862Z,32.10
2023-01-29T13:13:06.482Z,24.70
2023-01-29T13:15:40.839Z,29.10
2023-01-29T13:18:38.078Z,47.40
2023-01-29T13:21:07.005Z,32.60
2023-01-29T13:23:40.065Z,29.90
2023-01-29T13:26:08.139Z,30.30
2023-01-29T13:28:36.636Z,24.60
2023-01-29T13:31:12.026Z,23.30
2023-01-29T13:33:43.536Z,23.90
2023-01-29T13:36:20.866Z,27.30
2023-01-29T13:39:15.101Z,29.40
2023-01-29T13:41:43.742Z,45.20
2023-01-29T13:44:26.484Z,48.80
2023-01-29T13:47:22.069Z,32.10
2023-01-29T13:50:15.725Z,27.90
2023-01-29T13:52:58.085Z,31.80
2023-01-29T13:55:40.741Z,48.80
2023-01-29T13:58:33.433Z,32.60
2023-01-29T14:01:01.843Z,26.00
2023-01-29T14:03:45.067Z,26.90
2023-01-29T14:06:40.171Z,61.60
2023-01-29T14:09:37.521Z,36.40
2023-01-29T14:12:25.632Z,64.80
2023-01-29T14:14:59.422Z,47.00
2023-01-29T14:17:29.070Z,37.90
2023-01-29T14:20:27.736Z,25.20
2023-01-29T14:23:02.011Z,80.70
2023-01-29T14:25:37.189Z,29.10
2023-01-29T14:28:15.220Z,27.50
2023-01-29T14:30:48.464Z,59.10
2023-01-29T14:33:36.923Z,35.70
2023-01-29T14:36:09.310Z,56.30
2023-01-29T14:38:38.922Z,42.50
2023-01-29T14:41:25.367Z,105.90
2023-01-29T14:44:45.884Z,50.20
2023-01-29T14:47:22.527Z,35.70
2023-01-29T14:50:02.060Z,42.20
2023-01-29T14:52:37.524Z,40.30
2023-01-29T14:55:26.906Z,23.80
2023-01-29T14:57:58.356Z,40.90
2023-01-29T15:00:38.898Z,53.50
2023-01-29T15:03:17.610Z,33.60
2023-01-29T15:05:47.886Z,48.90
2023-01-29T15:08:30.237Z,43.00
2023-01-29T15:11:21.615Z,44.30
2023-01-29T15:14:24.197Z,54.60
2023-01-29T15:17:11.205Z,34.40
2023-01-29T15:19:48.535Z,29.80
2023-01-29T15:22:29.862Z,33.10
2023-01-29T15:25:07.674Z,46.80
2023-01-29T15:27:35.901Z,38.40
2023-01-29T15:30:08.056Z,46.10
2023-01-29T15:32:38.029Z,52.10
2023-01-29T15:35:10.228Z,76.80
2023-01-29T15:37:38.337Z,50.50
2023-01-29T15:40:15.508Z,42.60
2023-01-29T15:42:48.911Z,35.10
2023-01-29T15:45:31.437Z,37.60
2023-01-29T15:48:13.136Z,66.70
2023-01-29T15:50:42.653Z,68.40
2023-01-29T15:53:18.336Z,48.90
2023-01-29T15:55:47.621Z,69.80
2023-01-29T15:58:19.086Z,77.60
2023-01-29T16:00:55.809Z,68.20
2023-01-29T16:03:25.532Z,49.20
2023-01-29T16:05:55.113Z,52.20
2023-01-29T16:08:26.207Z,50.60
2023-01-29T16:10:58.340Z,51.50
2023-01-29T16:13:30.365Z,58.70
2023-01-29T16:16:16.842Z,47.50
2023-01-29T16:18:59.603Z,35.40
2023-01-29T16:21:34.202Z,44.90
2023-01-29T16:24:09.687Z,40.60
2023-01-29T16:26:47.245Z,43.70
2023-01-29T16:29:19.361Z,46.90
2023-01-29T16:31:50.442Z,54.70
2023-01-29T16:34:33.769Z,39.50
2023-01-29T16:37:04.459Z,49.80
2023-01-29T16:39:35.977Z,38.50
2023-01-29T16:42:09.692Z,41.30
2023-01-29T16:44:45.355Z,55.30
2023-01-29T16:47:16.611Z,34.00
2023-01-29T16:49:49.434Z,31.40
2023-01-29T16:52:27.645Z,63.60
2023-01-29T16:55:20.624Z,48.70
2023-01-29T16:57:54.292Z,41.10
2023-01-29T17:00:26.251Z,54.40
2023-01-29T17:03:07.675Z,58.90
2023-01-29T17:05:38.213Z,46.10
2023-01-29T17:08:07.725Z,88.60
2023-01-29T17:10:36.238Z,48.60
2023-01-29T17:13:07.731Z,38.50
2023-01-29T17:15:43.192Z,46.80
2023-01-29T17:18:20.563Z,31.50
2023-01-29T17:20:49.786Z,49.60
2023-01-29T17:23:17.785Z,49.00
2023-01-29T17:25:46.993Z,38.50
2023-01-29T17:28:17.490Z,69.10
2023-01-29T17:30:56.654Z,45.60
2023-01-29T17:33:33.887Z,46.20
2023-01-29T17:36:01.700Z,86.70
2023-01-29T17:38:29.673Z,181.80
2023-01-29T17:41:13.055Z,122.70
2023-01-29T17:43:41.057Z,174.20
2023-01-29T17:46:13.816Z,70.70
2023-01-29T17:48:42.277Z,68.60
2023-01-29T17:51:14.973Z,86.60
2023-01-29T17:53:46.207Z,122.90
2023-01-29T17:56:21.806Z,73.80
2023-01-29T17:58:49.709Z,83.50
2023-01-29T18:01:17.763Z,123.40
2023-01-29T18:03:45.808Z,68.00
2023-01-29T18:06:26.337Z,105.10
2023-01-29T18:08:54.604Z,65.90
2023-01-29T18:11:22.899Z,47.70
2023-01-29T18:13:51.162Z,53.20
2023-01-29T18:16:22.008Z,39.50
2023-01-29T18:18:51.412Z,41.10
2023-01-29T18:21:19.490Z,37.60
2023-01-29T18:23:47.386Z,38.90
2023-01-29T18:26:16.661Z,56.40
2023-01-29T18:28:45.234Z,64.00
2023-01-29T18:31:14.493Z,40.60
2023-01-29T18:33:42.697Z,38.30
2023-01-29T18:36:10.906Z,29.90
2023-01-29T18:38:39.120Z,39.80
2023-01-29T18:41:12.541Z,56.30
2023-01-29T18:43:42.033Z,58.40
2023-01-29T18:46:10.404Z,37.40
2023-01-29T18:48:38.761Z,36.30
2023-01-29T18:51:07.571Z,23.70
2023-01-29T18:53:35.553Z,22.90
2023-01-29T18:56:05.800Z,26.90
2023-01-29T18:58:36.093Z,33.70
2023-01-29T19:01:09.698Z,30.80
2023-01-29T19:03:39.243Z,64.20
2023-01-29T19:06:09.622Z,36.50
2023-01-29T19:08:38.196Z,75.40
2023-01-29T19:11:08.344Z,142.90
2023-01-29T19:13:38.158Z,130.40
2023-01-29T19:16:10.500Z,105.80
2023-01-29T19:18:38.970Z,68.30
2023-01-29T19:21:11.592Z,49.30
2023-01-29T19:23:40.604Z,64.90
2023-01-29T19:26:09.391Z,49.20
2023-01-29T19:28:37.487Z,49.20
2023-01-29T19:31:05.482Z,48.00
2023-01-29T19:33:33.731Z,43.90
2023-01-29T19:36:04.857Z,33.00
2023-01-29T19:38:34.696Z,39.00
2023-01-29T19:41:03.068Z,103.90
2023-01-29T19:43:31.802Z,108.50
2023-01-29T19:46:02.102Z,62.70
2023-01-29T19:48:30.307Z,67.20
2023-01-29T19:51:01.656Z,50.10
2023-01-29T19:53:30.840Z,47.10
2023-01-29T19:56:03.950Z,80.60
2023-01-29T19:58:33.154Z,174.10
2023-01-29T20:01:13.562Z,135.20
2023-01-29T20:03:42.262Z,91.40
2023-01-29T20:06:11.327Z,45.50
2023-01-29T20:08:39.396Z,65.90
2023-01-29T20:11:07.549Z,85.60
2023-01-29T20:13:36.239Z,63.30
2023-01-29T20:16:05.525Z,51.70
2023-01-29T20:18:33.742Z,26.90
2023-01-29T20:21:13.774Z,42.80
2023-01-29T20:23:43.740Z,37.60
2023-01-29T20:26:15.799Z,170.60
2023-01-29T20:28:46.771Z,98.80
2023-01-29T20:31:15.539Z,50.50
2023-01-29T20:33:44.414Z,40.70
2023-01-29T20:36:13.057Z,46.40
2023-01-29T20:38:41.136Z,36.00
2023-01-29T20:41:11.652Z,51.10
2023-01-29T20:43:40.505Z,46.60
2023-01-29T20:46:09.295Z,58.20
2023-01-29T20:48:39.507Z,49.60
2023-01-29T20:51:15.962Z,46.00
2023-01-29T20:53:46.371Z,39.20
2023-01-29T20:56:16.349Z,32.70
2023-01-29T20:58:46.628Z,25.50
2023-01-29T21:01:18.323Z,107.60
2023-01-29T21:03:47.061Z,84.30
2023-01-29T21:06:15.863Z,38.90
2023-01-29T21:08:43.936Z,34.40
2023-01-29T21:11:11.804Z,49.70
2023-01-29T21:13:39.757Z,72.10
2023-01-29T21:16:08.521Z,123.70
2023-01-29T21:18:36.490Z,50.60
2023-01-29T21:21:04.927Z,33.70
2023-01-29T21:23:32.779Z,76.00
2023-01-29T21:26:05.539Z,56.50
2023-01-29T21:28:34.623Z,45.40
2023-01-29T21:31:10.587Z,55.50
2023-01-29T21:33:38.596Z,35.40
2023-01-29T21:36:07.574Z,25.60
2023-01-29T21:38:36.495Z,40.50
2023-01-29T21:41:07.204Z,25.70
2023-01-29T21:43:35.613Z,22.50
2023-01-29T21:46:11.416Z,28.50
2023-01-29T21:48:40.863Z,20.30
2023-01-29T21:51:08.859Z,19.30
2023-01-29T21:53:37.386Z,42.90
2023-01-29T21:56:06.257Z,75.10
2023-01-29T21:58:34.110Z,40.20
2023-01-29T22:01:22.872Z,35.40
2023-01-29T22:03:50.243Z,38.40
2023-01-29T22:06:18.120Z,27.60
2023-01-29T22:08:48.966Z,34.30
2023-01-29T22:11:17.218Z,145.80
2023-01-29T22:13:45.225Z,82.30
2023-01-29T22:16:13.172Z,40.90
2023-01-29T22:18:41.157Z,39.70
2023-01-29T22:21:09.207Z,49.30
2023-01-29T22:23:38.073Z,42.70
2023-01-29T22:26:07.564Z,56.70
2023-01-29T22:28:35.491Z,95.10
2023-01-29T22:31:05.118Z,71.70
2023-01-29T22:33:33.613Z,52.00
2023-01-29T22:36:02.297Z,75.70
2023-01-29T22:38:30.887Z,31.50
2023-01-29T22:41:00.207Z,58.70
2023-01-29T22:43:29.381Z,66.70
2023-01-29T22:45:57.550Z,60.70
2023-01-29T22:48:25.582Z,39.60
2023-01-29T22:51:10.154Z,30.30
2023-01-29T22:53:52.695Z,31.60
2023-01-29T22:56:25.365Z,69.10
2023-01-29T22:58:55.734Z,95.00
2023-01-29T23:01:27.593Z,52.40
2023-01-29T23:03:55.483Z,57.20
2023-01-29T23:06:23.780Z,28.40
2023-01-29T23:08:52.085Z,31.00
2023-01-29T23:11:21.585Z,82.80
2023-01-29T23:13:54.633Z,42.80
2023-01-29T23:16:27.000Z,69.50
2023-01-29T23:18:57.294Z,41.10
2023-01-29T23:21:26.188Z,50.10
2023-01-29T23:23:57.061Z,75.00
2023-01-29T23:26:44.208Z,82.00
2023-01-29T23:29:12.776Z,95.90
2023-01-29T23:31:41.035Z,106.60
2023-01-29T23:34:09.092Z,31.80
2023-01-29T23:36:37.096Z,85.80
2023-01-29T23:39:06.268Z,86.40
2023-01-29T23:41:34.234Z,111.80
2023-01-29T23:44:02.253Z,108.20
2023-01-29T23:46:30.895Z,82.20
2023-01-29T23:48:58.945Z,63.50
2023-01-29T23:51:27.158Z,36.90
2023-01-29T23:53:55.315Z,35.30
2023-01-29T23:56:23.193Z,27.20
2023-01-29T23:58:57.828Z,91.50
